sensor_id;sensor_type;location;lat;lon;timestamp;temperature;humidity
10431;DHT22;5262;59.958;17.726;2022-09-09T00:04:38;5.40;99.90
10431;DHT22;5262;59.958;17.726;2022-09-09T00:07:39;5.30;99.90
10431;DHT22;5262;59.958;17.726;2022-09-09T00:10:34;5.30;99.90
10431;DHT22;5262;59.958;17.726;2022-09-09T00:13:41;5.30;99.90
10431;DHT22;5262;59.958;17.726;2022-09-09T00:16:24;5.20;99.90
10431;DHT22;5262;59.958;17.726;2022-09-09T00:19:05;5.20;99.90
10431;DHT22;5262;59.958;17.726;2022-09-09T00:21:38;5.30;99.90
10431;DHT22;5262;59.958;17.726;2022-09-09T00:24:28;5.30;99.90
10431;DHT22;5262;59.958;17.726;2022-09-09T00:27:16;5.40;99.90
10431;DHT22;5262;59.958;17.726;2022-09-09T00:30:32;5.50;99.90
10431;DHT22;5262;59.958;17.726;2022-09-09T00:32:34;5.50;99.90
10431;DHT22;5262;59.958;17.726;2022-09-09T00:35:16;5.60;99.90
10431;DHT22;5262;59.958;17.726;2022-09-09T00:37:45;5.70;99.90
10431;DHT22;5262;59.958;17.726;2022-09-09T00:40:35;5.80;99.90
10431;DHT22;5262;59.958;17.726;2022-09-09T00:43:24;5.90;99.90
10431;DHT22;5262;59.958;17.726;2022-09-09T00:52:06;6.10;99.90
10431;DHT22;5262;59.958;17.726;2022-09-09T00:54:45;6.20;99.90
10431;DHT22;5262;59.958;17.726;2022-09-09T01:00:16;6.30;99.90
10431;DHT22;5262;59.958;17.726;2022-09-09T01:11:02;6.50;99.90
10431;DHT22;5262;59.958;17.726;2022-09-09T01:13:34;6.50;99.90
10431;DHT22;5262;59.958;17.726;2022-09-09T01:16:03;6.60;99.90
10431;DHT22;5262;59.958;17.726;2022-09-09T01:18:39;6.60;99.90
10431;DHT22;5262;59.958;17.726;2022-09-09T01:26:44;6.70;99.90
10431;DHT22;5262;59.958;17.726;2022-09-09T01:29:16;6.80;99.90
10431;DHT22;5262;59.958;17.726;2022-09-09T01:31:57;6.80;99.90
10431;DHT22;5262;59.958;17.726;2022-09-09T01:34:27;6.80;99.90
10431;DHT22;5262;59.958;17.726;2022-09-09T01:37:03;6.80;99.90
10431;DHT22;5262;59.958;17.726;2022-09-09T01:39:30;6.90;99.90
10431;DHT22;5262;59.958;17.726;2022-09-09T01:41:57;6.90;99.90
10431;DHT22;5262;59.958;17.726;2022-09-09T01:44:23;6.90;99.90
10431;DHT22;5262;59.958;17.726;2022-09-09T01:46:49;7.00;99.90
10431;DHT22;5262;59.958;17.726;2022-09-09T01:49:16;7.00;99.90
10431;DHT22;5262;59.958;17.726;2022-09-09T01:51:43;7.00;99.90
10431;DHT22;5262;59.958;17.726;2022-09-09T01:54:09;7.10;99.90
10431;DHT22;5262;59.958;17.726;2022-09-09T02:02:14;7.10;99.90
10431;DHT22;5262;59.958;17.726;2022-09-09T02:04:44;7.20;99.90
10431;DHT22;5262;59.958;17.726;2022-09-09T02:07:37;7.20;99.90
10431;DHT22;5262;59.958;17.726;2022-09-09T02:10:28;7.20;99.90
10431;DHT22;5262;59.958;17.726;2022-09-09T02:13:07;7.20;99.90
10431;DHT22;5262;59.958;17.726;2022-09-09T02:15:56;7.20;99.90
10431;DHT22;5262;59.958;17.726;2022-09-09T02:19:12;7.20;99.90
10431;DHT22;5262;59.958;17.726;2022-09-09T02:21:18;7.30;99.90
10431;DHT22;5262;59.958;17.726;2022-09-09T02:23:46;7.30;99.90
10431;DHT22;5262;59.958;17.726;2022-09-09T02:26:13;7.30;99.90
10431;DHT22;5262;59.958;17.726;2022-09-09T02:28:46;7.30;99.90
10431;DHT22;5262;59.958;17.726;2022-09-09T02:31:13;7.20;99.90
10431;DHT22;5262;59.958;17.726;2022-09-09T02:33:45;7.20;99.90
10431;DHT22;5262;59.958;17.726;2022-09-09T02:36:14;7.10;99.90
10431;DHT22;5262;59.958;17.726;2022-09-09T02:38:45;7.00;99.90
10431;DHT22;5262;59.958;17.726;2022-09-09T02:41:19;6.90;99.90
10431;DHT22;5262;59.958;17.726;2022-09-09T02:43:47;6.80;99.90
10431;DHT22;5262;59.958;17.726;2022-09-09T02:49:02;6.70;99.90
10431;DHT22;5262;59.958;17.726;2022-09-09T02:54:30;6.70;99.90
10431;DHT22;5262;59.958;17.726;2022-09-09T02:57:21;6.70;99.90
10431;DHT22;5262;59.958;17.726;2022-09-09T02:59:45;6.70;99.90
10431;DHT22;5262;59.958;17.726;2022-09-09T03:02:11;6.80;99.90
10431;DHT22;5262;59.958;17.726;2022-09-09T03:04:38;6.80;99.90
10431;DHT22;5262;59.958;17.726;2022-09-09T03:07:04;6.90;99.90
10431;DHT22;5262;59.958;17.726;2022-09-09T03:09:30;7.00;99.90
10431;DHT22;5262;59.958;17.726;2022-09-09T03:11:56;7.10;99.90
10431;DHT22;5262;59.958;17.726;2022-09-09T03:14:22;7.10;99.90
10431;DHT22;5262;59.958;17.726;2022-09-09T03:16:54;7.10;99.90
10431;DHT22;5262;59.958;17.726;2022-09-09T03:19:20;7.10;99.90
10431;DHT22;5262;59.958;17.726;2022-09-09T03:21:47;7.20;99.90
10431;DHT22;5262;59.958;17.726;2022-09-09T03:24:13;7.20;99.90
10431;DHT22;5262;59.958;17.726;2022-09-09T03:26:40;7.20;99.90
10431;DHT22;5262;59.958;17.726;2022-09-09T03:29:06;7.20;99.90
10431;DHT22;5262;59.958;17.726;2022-09-09T03:31:33;7.20;99.90
10431;DHT22;5262;59.958;17.726;2022-09-09T03:33:59;7.30;99.90
10431;DHT22;5262;59.958;17.726;2022-09-09T03:36:26;7.30;99.90
10431;DHT22;5262;59.958;17.726;2022-09-09T03:38:52;7.30;99.90
10431;DHT22;5262;59.958;17.726;2022-09-09T03:41:19;7.30;99.90
10431;DHT22;5262;59.958;17.726;2022-09-09T03:43:45;7.30;99.90
10431;DHT22;5262;59.958;17.726;2022-09-09T03:46:11;7.40;99.90
10431;DHT22;5262;59.958;17.726;2022-09-09T03:48:36;7.40;99.90
10431;DHT22;5262;59.958;17.726;2022-09-09T03:51:02;7.40;99.90
10431;DHT22;5262;59.958;17.726;2022-09-09T03:53:29;7.40;99.90
10431;DHT22;5262;59.958;17.726;2022-09-09T03:55:55;7.40;99.90
10431;DHT22;5262;59.958;17.726;2022-09-09T03:58:22;7.40;99.90
10431;DHT22;5262;59.958;17.726;2022-09-09T04:00:57;7.40;99.90
10431;DHT22;5262;59.958;17.726;2022-09-09T04:03:24;7.50;99.90
10431;DHT22;5262;59.958;17.726;2022-09-09T04:05:51;7.50;99.90
10431;DHT22;5262;59.958;17.726;2022-09-09T04:08:17;7.50;99.90
10431;DHT22;5262;59.958;17.726;2022-09-09T04:10:48;7.50;99.90
10431;DHT22;5262;59.958;17.726;2022-09-09T04:13:16;7.50;99.90
10431;DHT22;5262;59.958;17.726;2022-09-09T04:15:42;7.50;99.90
10431;DHT22;5262;59.958;17.726;2022-09-09T04:18:08;7.50;99.90
10431;DHT22;5262;59.958;17.726;2022-09-09T04:20:34;7.60;99.90
10431;DHT22;5262;59.958;17.726;2022-09-09T04:23:01;7.60;99.90
10431;DHT22;5262;59.958;17.726;2022-09-09T04:25:26;7.60;99.90
10431;DHT22;5262;59.958;17.726;2022-09-09T04:27:56;7.60;99.90
10431;DHT22;5262;59.958;17.726;2022-09-09T04:30:23;7.60;99.90
10431;DHT22;5262;59.958;17.726;2022-09-09T04:32:48;7.70;99.90
10431;DHT22;5262;59.958;17.726;2022-09-09T04:35:14;7.70;99.90
10431;DHT22;5262;59.958;17.726;2022-09-09T04:37:40;7.70;99.90
10431;DHT22;5262;59.958;17.726;2022-09-09T04:40:06;7.70;99.90
10431;DHT22;5262;59.958;17.726;2022-09-09T04:42:37;7.70;99.90
10431;DHT22;5262;59.958;17.726;2022-09-09T04:45:03;7.70;99.90
10431;DHT22;5262;59.958;17.726;2022-09-09T04:47:28;7.70;99.90
10431;DHT22;5262;59.958;17.726;2022-09-09T04:49:54;7.80;99.90
10431;DHT22;5262;59.958;17.726;2022-09-09T04:52:20;7.70;99.90
10431;DHT22;5262;59.958;17.726;2022-09-09T04:54:46;7.80;99.90
10431;DHT22;5262;59.958;17.726;2022-09-09T04:57:13;7.80;99.90
10431;DHT22;5262;59.958;17.726;2022-09-09T04:59:39;7.90;99.90
10431;DHT22;5262;59.958;17.726;2022-09-09T05:02:05;7.90;99.90
10431;DHT22;5262;59.958;17.726;2022-09-09T05:04:31;7.90;99.90
10431;DHT22;5262;59.958;17.726;2022-09-09T05:06:57;7.90;99.90
10431;DHT22;5262;59.958;17.726;2022-09-09T05:09:22;8.00;99.90
10431;DHT22;5262;59.958;17.726;2022-09-09T05:11:48;8.00;99.90
10431;DHT22;5262;59.958;17.726;2022-09-09T05:14:14;8.00;99.90
10431;DHT22;5262;59.958;17.726;2022-09-09T05:16:40;8.10;99.90
10431;DHT22;5262;59.958;17.726;2022-09-09T05:19:06;8.10;99.90
10431;DHT22;5262;59.958;17.726;2022-09-09T05:21:33;8.10;99.90
10431;DHT22;5262;59.958;17.726;2022-09-09T05:23:59;8.10;99.90
10431;DHT22;5262;59.958;17.726;2022-09-09T05:26:26;8.20;99.90
10431;DHT22;5262;59.958;17.726;2022-09-09T05:28:52;8.20;99.90
10431;DHT22;5262;59.958;17.726;2022-09-09T05:31:18;8.20;99.90
10431;DHT22;5262;59.958;17.726;2022-09-09T05:33:45;8.20;99.90
10431;DHT22;5262;59.958;17.726;2022-09-09T05:36:14;8.30;99.90
10431;DHT22;5262;59.958;17.726;2022-09-09T05:38:41;8.30;99.90
10431;DHT22;5262;59.958;17.726;2022-09-09T05:41:07;8.30;99.90
10431;DHT22;5262;59.958;17.726;2022-09-09T05:43:33;8.40;99.90
10431;DHT22;5262;59.958;17.726;2022-09-09T05:46:08;8.40;99.90
10431;DHT22;5262;59.958;17.726;2022-09-09T05:48:35;8.50;99.90
10431;DHT22;5262;59.958;17.726;2022-09-09T05:51:03;8.50;99.90
10431;DHT22;5262;59.958;17.726;2022-09-09T05:53:29;8.50;99.90
10431;DHT22;5262;59.958;17.726;2022-09-09T05:56:23;8.50;99.90
10431;DHT22;5262;59.958;17.726;2022-09-09T05:58:51;8.60;99.90
10431;DHT22;5262;59.958;17.726;2022-09-09T06:01:21;8.60;99.90
10431;DHT22;5262;59.958;17.726;2022-09-09T06:03:48;8.70;99.90
10431;DHT22;5262;59.958;17.726;2022-09-09T06:06:25;8.70;99.90
10431;DHT22;5262;59.958;17.726;2022-09-09T06:08:55;8.80;99.90
10431;DHT22;5262;59.958;17.726;2022-09-09T06:11:29;8.80;99.90
10431;DHT22;5262;59.958;17.726;2022-09-09T06:13:58;8.90;99.90
10431;DHT22;5262;59.958;17.726;2022-09-09T06:16:26;9.00;99.90
10431;DHT22;5262;59.958;17.726;2022-09-09T06:18:53;9.10;99.90
10431;DHT22;5262;59.958;17.726;2022-09-09T06:21:25;9.10;99.90
10431;DHT22;5262;59.958;17.726;2022-09-09T06:23:51;9.20;99.90
10431;DHT22;5262;59.958;17.726;2022-09-09T06:26:21;9.30;99.90
10431;DHT22;5262;59.958;17.726;2022-09-09T06:28:50;9.40;99.90
10431;DHT22;5262;59.958;17.726;2022-09-09T06:31:17;9.40;99.90
10431;DHT22;5262;59.958;17.726;2022-09-09T06:33:46;9.50;99.90
10431;DHT22;5262;59.958;17.726;2022-09-09T06:36:15;9.60;99.90
10431;DHT22;5262;59.958;17.726;2022-09-09T06:38:44;9.70;99.90
10431;DHT22;5262;59.958;17.726;2022-09-09T06:41:12;9.70;99.90
10431;DHT22;5262;59.958;17.726;2022-09-09T06:43:38;9.80;99.90
10431;DHT22;5262;59.958;17.726;2022-09-09T06:46:10;9.80;99.90
10431;DHT22;5262;59.958;17.726;2022-09-09T06:48:36;9.90;99.90
10431;DHT22;5262;59.958;17.726;2022-09-09T06:51:06;9.90;99.90
10431;DHT22;5262;59.958;17.726;2022-09-09T06:53:33;9.90;99.90
10431;DHT22;5262;59.958;17.726;2022-09-09T06:56:22;10.00;99.90
10431;DHT22;5262;59.958;17.726;2022-09-09T06:58:47;10.00;99.90
10431;DHT22;5262;59.958;17.726;2022-09-09T07:01:19;10.10;99.90
10431;DHT22;5262;59.958;17.726;2022-09-09T07:03:47;10.10;99.90
10431;DHT22;5262;59.958;17.726;2022-09-09T07:06:15;10.10;99.90
10431;DHT22;5262;59.958;17.726;2022-09-09T07:08:43;10.10;99.90
10431;DHT22;5262;59.958;17.726;2022-09-09T07:11:09;10.20;99.90
10431;DHT22;5262;59.958;17.726;2022-09-09T07:13:35;10.20;99.90
10431;DHT22;5262;59.958;17.726;2022-09-09T07:16:05;10.20;99.90
10431;DHT22;5262;59.958;17.726;2022-09-09T07:18:31;10.20;99.90
10431;DHT22;5262;59.958;17.726;2022-09-09T07:20:57;10.30;99.90
10431;DHT22;5262;59.958;17.726;2022-09-09T07:23:23;10.30;99.90
10431;DHT22;5262;59.958;17.726;2022-09-09T07:25:49;10.30;99.90
10431;DHT22;5262;59.958;17.726;2022-09-09T07:28:16;10.30;99.90
10431;DHT22;5262;59.958;17.726;2022-09-09T07:30:42;10.30;99.90
10431;DHT22;5262;59.958;17.726;2022-09-09T07:33:08;10.30;99.90
10431;DHT22;5262;59.958;17.726;2022-09-09T07:35:37;10.30;99.90
10431;DHT22;5262;59.958;17.726;2022-09-09T07:38:03;10.20;99.90
10431;DHT22;5262;59.958;17.726;2022-09-09T07:40:33;10.20;99.90
10431;DHT22;5262;59.958;17.726;2022-09-09T07:42:59;10.20;99.90
10431;DHT22;5262;59.958;17.726;2022-09-09T07:45:26;10.20;99.90
10431;DHT22;5262;59.958;17.726;2022-09-09T07:47:53;10.30;99.90
10431;DHT22;5262;59.958;17.726;2022-09-09T07:50:19;10.40;99.90
10431;DHT22;5262;59.958;17.726;2022-09-09T07:52:44;10.50;99.90
10431;DHT22;5262;59.958;17.726;2022-09-09T07:55:10;10.70;99.90
10431;DHT22;5262;59.958;17.726;2022-09-09T07:57:36;11.00;99.90
10431;DHT22;5262;59.958;17.726;2022-09-09T08:00:03;11.50;99.90
10431;DHT22;5262;59.958;17.726;2022-09-09T08:02:29;12.40;99.90
10431;DHT22;5262;59.958;17.726;2022-09-09T08:04:55;13.10;99.90
10431;DHT22;5262;59.958;17.726;2022-09-09T08:07:22;13.90;99.90
10431;DHT22;5262;59.958;17.726;2022-09-09T08:09:47;14.20;99.90
10431;DHT22;5262;59.958;17.726;2022-09-09T08:12:15;14.40;99.90
10431;DHT22;5262;59.958;17.726;2022-09-09T08:14:41;14.40;99.90
10431;DHT22;5262;59.958;17.726;2022-09-09T08:17:07;14.60;99.90
10431;DHT22;5262;59.958;17.726;2022-09-09T08:19:33;14.90;99.90
10431;DHT22;5262;59.958;17.726;2022-09-09T08:22:02;15.40;99.00
10431;DHT22;5262;59.958;17.726;2022-09-09T08:24:28;16.50;97.00
10431;DHT22;5262;59.958;17.726;2022-09-09T08:26:54;18.00;92.70
10431;DHT22;5262;59.958;17.726;2022-09-09T08:29:22;19.40;82.70
10431;DHT22;5262;59.958;17.726;2022-09-09T08:31:55;20.70;75.20
10431;DHT22;5262;59.958;17.726;2022-09-09T08:34:23;21.30;68.80
10431;DHT22;5262;59.958;17.726;2022-09-09T08:36:50;22.00;59.00
10431;DHT22;5262;59.958;17.726;2022-09-09T08:39:18;22.50;58.50
10431;DHT22;5262;59.958;17.726;2022-09-09T08:45:09;21.80;59.70
10431;DHT22;5262;59.958;17.726;2022-09-09T08:50:35;23.70;55.00
10431;DHT22;5262;59.958;17.726;2022-09-09T08:53:22;24.50;52.60
10431;DHT22;5262;59.958;17.726;2022-09-09T08:55:50;25.60;49.60
10431;DHT22;5262;59.958;17.726;2022-09-09T08:58:28;25.90;49.20
10431;DHT22;5262;59.958;17.726;2022-09-09T09:04:10;25.80;46.20
10431;DHT22;5262;59.958;17.726;2022-09-09T09:12:23;21.40;53.50
10431;DHT22;5262;59.958;17.726;2022-09-09T09:14:50;19.40;57.70
10431;DHT22;5262;59.958;17.726;2022-09-09T09:17:20;18.70;59.10
10431;DHT22;5262;59.958;17.726;2022-09-09T09:19:48;18.40;62.80
10431;DHT22;5262;59.958;17.726;2022-09-09T09:22:23;19.40;61.90
10431;DHT22;5262;59.958;17.726;2022-09-09T09:24:56;19.40;59.80
10431;DHT22;5262;59.958;17.726;2022-09-09T09:30:13;18.10;63.40
10431;DHT22;5262;59.958;17.726;2022-09-09T09:33:05;17.80;63.70
10431;DHT22;5262;59.958;17.726;2022-09-09T09:35:29;18.60;66.50
10431;DHT22;5262;59.958;17.726;2022-09-09T09:37:54;19.20;62.50
10431;DHT22;5262;59.958;17.726;2022-09-09T09:40:22;19.80;59.90
10431;DHT22;5262;59.958;17.726;2022-09-09T09:42:57;20.40;59.80
10431;DHT22;5262;59.958;17.726;2022-09-09T09:45:35;21.30;54.90
10431;DHT22;5262;59.958;17.726;2022-09-09T09:48:05;22.80;53.60
10431;DHT22;5262;59.958;17.726;2022-09-09T09:50:32;23.70;47.90
10431;DHT22;5262;59.958;17.726;2022-09-09T09:53:02;23.30;46.60
10431;DHT22;5262;59.958;17.726;2022-09-09T09:55:31;23.50;46.20
10431;DHT22;5262;59.958;17.726;2022-09-09T09:58:06;22.80;47.60
10431;DHT22;5262;59.958;17.726;2022-09-09T10:00:33;22.70;48.00
10431;DHT22;5262;59.958;17.726;2022-09-09T10:03:00;23.60;47.00
10431;DHT22;5262;59.958;17.726;2022-09-09T10:05:28;23.10;46.40
10431;DHT22;5262;59.958;17.726;2022-09-09T10:08:03;22.20;46.30
10431;DHT22;5262;59.958;17.726;2022-09-09T10:10:59;22.40;48.90
10431;DHT22;5262;59.958;17.726;2022-09-09T10:13:42;21.90;47.40
10431;DHT22;5262;59.958;17.726;2022-09-09T10:19:10;20.40;49.70
10431;DHT22;5262;59.958;17.726;2022-09-09T10:27:38;19.00;55.80
10431;DHT22;5262;59.958;17.726;2022-09-09T10:30:18;19.10;54.20
10431;DHT22;5262;59.958;17.726;2022-09-09T10:38:46;21.70;48.20
10431;DHT22;5262;59.958;17.726;2022-09-09T10:52:32;20.20;48.70
10431;DHT22;5262;59.958;17.726;2022-09-09T10:55:07;20.20;49.00
10431;DHT22;5262;59.958;17.726;2022-09-09T10:57:45;19.90;47.80
10431;DHT22;5262;59.958;17.726;2022-09-09T11:03:02;19.00;50.50
10431;DHT22;5262;59.958;17.726;2022-09-09T11:05:57;18.50;52.20
10431;DHT22;5262;59.958;17.726;2022-09-09T11:08:27;17.80;53.90
10431;DHT22;5262;59.958;17.726;2022-09-09T11:11:17;17.90;55.30
10431;DHT22;5262;59.958;17.726;2022-09-09T11:16:34;18.30;55.50
10431;DHT22;5262;59.958;17.726;2022-09-09T11:19:31;18.60;54.70
10431;DHT22;5262;59.958;17.726;2022-09-09T11:24:57;19.60;54.30
10431;DHT22;5262;59.958;17.726;2022-09-09T11:30:20;21.20;51.10
10431;DHT22;5262;59.958;17.726;2022-09-09T11:33:11;22.00;46.60
10431;DHT22;5262;59.958;17.726;2022-09-09T11:38:29;19.80;51.10
10431;DHT22;5262;59.958;17.726;2022-09-09T11:41:03;20.20;51.90
10431;DHT22;5262;59.958;17.726;2022-09-09T11:43:44;20.50;50.90
10431;DHT22;5262;59.958;17.726;2022-09-09T11:46:11;20.10;50.90
10431;DHT22;5262;59.958;17.726;2022-09-09T11:48:40;19.70;51.90
10431;DHT22;5262;59.958;17.726;2022-09-09T11:53:58;20.00;53.90
10431;DHT22;5262;59.958;17.726;2022-09-09T12:04:17;18.40;52.60
10431;DHT22;5262;59.958;17.726;2022-09-09T12:07:28;18.20;53.80
10431;DHT22;5262;59.958;17.726;2022-09-09T12:09:48;17.90;53.40
10431;DHT22;5262;59.958;17.726;2022-09-09T12:12:34;17.50;54.60
10431;DHT22;5262;59.958;17.726;2022-09-09T12:18:05;17.80;54.10
10431;DHT22;5262;59.958;17.726;2022-09-09T12:20:33;18.30;53.30
10431;DHT22;5262;59.958;17.726;2022-09-09T12:28:27;18.00;53.50
10431;DHT22;5262;59.958;17.726;2022-09-09T12:33:43;17.90;54.20
10431;DHT22;5262;59.958;17.726;2022-09-09T12:36:23;18.30;53.80
10431;DHT22;5262;59.958;17.726;2022-09-09T12:38:49;18.90;53.20
10431;DHT22;5262;59.958;17.726;2022-09-09T12:41:23;19.30;53.80
10431;DHT22;5262;59.958;17.726;2022-09-09T12:43:49;19.00;53.70
10431;DHT22;5262;59.958;17.726;2022-09-09T12:46:31;19.20;53.00
10431;DHT22;5262;59.958;17.726;2022-09-09T12:48:58;19.20;54.00
10431;DHT22;5262;59.958;17.726;2022-09-09T12:51:27;19.20;51.00
10431;DHT22;5262;59.958;17.726;2022-09-09T12:53:54;19.50;51.50
10431;DHT22;5262;59.958;17.726;2022-09-09T12:56:21;19.60;51.80
10431;DHT22;5262;59.958;17.726;2022-09-09T12:58:50;19.80;51.10
10431;DHT22;5262;59.958;17.726;2022-09-09T13:01:31;19.80;52.60
10431;DHT22;5262;59.958;17.726;2022-09-09T13:03:57;19.40;51.00
10431;DHT22;5262;59.958;17.726;2022-09-09T13:06:31;19.20;51.00
10431;DHT22;5262;59.958;17.726;2022-09-09T13:08:59;19.30;54.80
10431;DHT22;5262;59.958;17.726;2022-09-09T13:13:55;18.70;54.00
10431;DHT22;5262;59.958;17.726;2022-09-09T13:16:29;18.50;53.80
10431;DHT22;5262;59.958;17.726;2022-09-09T13:19:00;18.10;53.10
10431;DHT22;5262;59.958;17.726;2022-09-09T13:21:35;17.90;53.60
10431;DHT22;5262;59.958;17.726;2022-09-09T13:24:05;17.70;54.70
10431;DHT22;5262;59.958;17.726;2022-09-09T13:26:33;17.30;54.70
10431;DHT22;5262;59.958;17.726;2022-09-09T13:29:19;17.00;55.60
10431;DHT22;5262;59.958;17.726;2022-09-09T13:31:45;17.20;57.10
10431;DHT22;5262;59.958;17.726;2022-09-09T13:34:12;17.50;55.50
10431;DHT22;5262;59.958;17.726;2022-09-09T13:36:38;17.50;53.80
10431;DHT22;5262;59.958;17.726;2022-09-09T13:39:05;17.20;54.70
10431;DHT22;5262;59.958;17.726;2022-09-09T13:41:45;17.30;55.00
10431;DHT22;5262;59.958;17.726;2022-09-09T13:47:00;17.40;54.40
10431;DHT22;5262;59.958;17.726;2022-09-09T13:49:28;17.30;54.70
10431;DHT22;5262;59.958;17.726;2022-09-09T13:52:04;17.00;54.50
10431;DHT22;5262;59.958;17.726;2022-09-09T13:54:32;16.70;56.10
10431;DHT22;5262;59.958;17.726;2022-09-09T13:56:58;16.80;56.90
10431;DHT22;5262;59.958;17.726;2022-09-09T13:59:24;16.70;56.70
10431;DHT22;5262;59.958;17.726;2022-09-09T14:01:51;16.70;56.20
10431;DHT22;5262;59.958;17.726;2022-09-09T14:04:17;16.80;56.00
10431;DHT22;5262;59.958;17.726;2022-09-09T14:06:43;16.80;56.20
10431;DHT22;5262;59.958;17.726;2022-09-09T14:09:14;17.00;56.50
10431;DHT22;5262;59.958;17.726;2022-09-09T14:11:40;17.00;56.60
10431;DHT22;5262;59.958;17.726;2022-09-09T14:14:06;16.90;56.70
10431;DHT22;5262;59.958;17.726;2022-09-09T14:16:32;16.80;57.30
10431;DHT22;5262;59.958;17.726;2022-09-09T14:18:58;16.90;59.30
10431;DHT22;5262;59.958;17.726;2022-09-09T14:21:25;17.00;57.70
10431;DHT22;5262;59.958;17.726;2022-09-09T14:23:50;17.10;57.10
10431;DHT22;5262;59.958;17.726;2022-09-09T14:26:18;17.00;57.20
10431;DHT22;5262;59.958;17.726;2022-09-09T14:28:46;17.00;57.40
10431;DHT22;5262;59.958;17.726;2022-09-09T14:31:13;16.90;56.90
10431;DHT22;5262;59.958;17.726;2022-09-09T14:33:39;16.80;56.60
10431;DHT22;5262;59.958;17.726;2022-09-09T14:36:05;16.80;57.40
10431;DHT22;5262;59.958;17.726;2022-09-09T14:38:34;16.80;57.20
10431;DHT22;5262;59.958;17.726;2022-09-09T14:41:00;16.70;57.40
10431;DHT22;5262;59.958;17.726;2022-09-09T14:43:28;16.50;58.30
10431;DHT22;5262;59.958;17.726;2022-09-09T14:45:55;16.20;58.70
10431;DHT22;5262;59.958;17.726;2022-09-09T14:48:21;15.90;59.40
10431;DHT22;5262;59.958;17.726;2022-09-09T14:50:47;15.60;59.80
10431;DHT22;5262;59.958;17.726;2022-09-09T14:53:12;15.50;61.30
10431;DHT22;5262;59.958;17.726;2022-09-09T14:55:38;15.30;62.10
10431;DHT22;5262;59.958;17.726;2022-09-09T14:58:04;15.10;61.40
10431;DHT22;5262;59.958;17.726;2022-09-09T15:00:31;15.10;63.10
10431;DHT22;5262;59.958;17.726;2022-09-09T15:02:57;15.10;61.20
10431;DHT22;5262;59.958;17.726;2022-09-09T15:05:23;15.20;60.90
10431;DHT22;5262;59.958;17.726;2022-09-09T15:07:50;15.30;61.90
10431;DHT22;5262;59.958;17.726;2022-09-09T15:10:16;15.30;60.90
10431;DHT22;5262;59.958;17.726;2022-09-09T15:12:43;15.30;62.00
10431;DHT22;5262;59.958;17.726;2022-09-09T15:15:09;15.20;62.80
10431;DHT22;5262;59.958;17.726;2022-09-09T15:17:34;15.10;62.60
10431;DHT22;5262;59.958;17.726;2022-09-09T15:20:05;15.20;62.20
10431;DHT22;5262;59.958;17.726;2022-09-09T15:22:31;15.20;61.40
10431;DHT22;5262;59.958;17.726;2022-09-09T15:24:57;15.30;62.30
10431;DHT22;5262;59.958;17.726;2022-09-09T15:27:23;15.40;61.30
10431;DHT22;5262;59.958;17.726;2022-09-09T15:29:49;15.50;62.10
10431;DHT22;5262;59.958;17.726;2022-09-09T15:32:17;15.70;62.60
10431;DHT22;5262;59.958;17.726;2022-09-09T15:34:43;15.70;60.40
10431;DHT22;5262;59.958;17.726;2022-09-09T15:37:12;15.60;61.40
10431;DHT22;5262;59.958;17.726;2022-09-09T15:39:40;15.60;63.00
10431;DHT22;5262;59.958;17.726;2022-09-09T15:42:06;15.50;63.80
10431;DHT22;5262;59.958;17.726;2022-09-09T15:44:40;15.40;64.50
10431;DHT22;5262;59.958;17.726;2022-09-09T15:47:08;15.30;63.10
10431;DHT22;5262;59.958;17.726;2022-09-09T15:49:35;15.20;63.10
10431;DHT22;5262;59.958;17.726;2022-09-09T15:52:01;15.10;64.10
10431;DHT22;5262;59.958;17.726;2022-09-09T15:54:32;15.00;64.10
10431;DHT22;5262;59.958;17.726;2022-09-09T15:57:00;14.80;63.60
10431;DHT22;5262;59.958;17.726;2022-09-09T15:59:28;14.80;64.80
10431;DHT22;5262;59.958;17.726;2022-09-09T16:01:54;14.70;65.10
10431;DHT22;5262;59.958;17.726;2022-09-09T16:04:22;14.60;65.40
10431;DHT22;5262;59.958;17.726;2022-09-09T16:06:55;14.60;65.70
10431;DHT22;5262;59.958;17.726;2022-09-09T16:09:22;14.50;66.90
10431;DHT22;5262;59.958;17.726;2022-09-09T16:11:48;14.30;66.20
10431;DHT22;5262;59.958;17.726;2022-09-09T16:14:14;14.30;67.30
10431;DHT22;5262;59.958;17.726;2022-09-09T16:16:41;14.20;67.40
10431;DHT22;5262;59.958;17.726;2022-09-09T16:19:09;14.10;67.90
10431;DHT22;5262;59.958;17.726;2022-09-09T16:21:40;14.10;69.30
10431;DHT22;5262;59.958;17.726;2022-09-09T16:24:09;13.90;69.00
10431;DHT22;5262;59.958;17.726;2022-09-09T16:26:36;13.80;68.40
10431;DHT22;5262;59.958;17.726;2022-09-09T16:29:03;13.80;69.10
10431;DHT22;5262;59.958;17.726;2022-09-09T16:31:30;13.70;70.30
10431;DHT22;5262;59.958;17.726;2022-09-09T16:33:57;13.50;69.90
10431;DHT22;5262;59.958;17.726;2022-09-09T16:36:34;13.50;70.70
10431;DHT22;5262;59.958;17.726;2022-09-09T16:39:03;13.40;71.00
10431;DHT22;5262;59.958;17.726;2022-09-09T16:41:29;13.30;71.60
10431;DHT22;5262;59.958;17.726;2022-09-09T16:44:00;13.20;72.70
10431;DHT22;5262;59.958;17.726;2022-09-09T16:46:28;13.10;73.90
10431;DHT22;5262;59.958;17.726;2022-09-09T16:48:56;12.90;74.40
10431;DHT22;5262;59.958;17.726;2022-09-09T16:51:29;12.80;75.40
10431;DHT22;5262;59.958;17.726;2022-09-09T16:53:55;12.80;76.00
10431;DHT22;5262;59.958;17.726;2022-09-09T16:56:24;12.60;75.80
10431;DHT22;5262;59.958;17.726;2022-09-09T16:58:55;12.60;76.30
10431;DHT22;5262;59.958;17.726;2022-09-09T17:01:22;12.50;77.30
10431;DHT22;5262;59.958;17.726;2022-09-09T17:03:55;12.40;78.50
10431;DHT22;5262;59.958;17.726;2022-09-09T17:06:21;12.30;78.70
10431;DHT22;5262;59.958;17.726;2022-09-09T17:09:03;12.10;80.50
10431;DHT22;5262;59.958;17.726;2022-09-09T17:11:30;12.00;85.90
10431;DHT22;5262;59.958;17.726;2022-09-09T17:13:57;11.90;87.50
10431;DHT22;5262;59.958;17.726;2022-09-09T17:16:25;11.70;91.00
10431;DHT22;5262;59.958;17.726;2022-09-09T17:18:53;11.50;93.40
10431;DHT22;5262;59.958;17.726;2022-09-09T17:21:22;11.30;95.50
10431;DHT22;5262;59.958;17.726;2022-09-09T17:23:49;11.20;96.90
10431;DHT22;5262;59.958;17.726;2022-09-09T17:26:17;11.00;98.30
10431;DHT22;5262;59.958;17.726;2022-09-09T17:28:43;10.80;99.50
10431;DHT22;5262;59.958;17.726;2022-09-09T17:31:12;10.60;99.90
10431;DHT22;5262;59.958;17.726;2022-09-09T17:33:40;10.40;99.90
10431;DHT22;5262;59.958;17.726;2022-09-09T17:36:13;10.30;99.90
10431;DHT22;5262;59.958;17.726;2022-09-09T17:38:40;10.10;99.90
10431;DHT22;5262;59.958;17.726;2022-09-09T17:41:14;10.00;99.90
10431;DHT22;5262;59.958;17.726;2022-09-09T17:43:41;9.90;99.90
10431;DHT22;5262;59.958;17.726;2022-09-09T17:46:10;9.80;99.90
10431;DHT22;5262;59.958;17.726;2022-09-09T17:48:36;9.60;99.90
10431;DHT22;5262;59.958;17.726;2022-09-09T17:51:07;9.50;99.90
10431;DHT22;5262;59.958;17.726;2022-09-09T17:53:41;9.40;99.90
10431;DHT22;5262;59.958;17.726;2022-09-09T17:56:09;9.20;99.90
10431;DHT22;5262;59.958;17.726;2022-09-09T17:58:35;9.10;99.90